Terminal Aerodrome Forecast
Issued by NWS

Home | Current Version | Previous Version | Text Only | Print | Product List | Glossary On
Versions: 1 2 3 4 5 6 7 8 9 10 11 12 13 14 15 16
000
FTUS46 KMFR 271130
TAFLMT
TAF
KLMT 271130Z 2712/2812 VRB03KT P6SM SKC
     FM271700 18008KT P6SM SCT060
     FM272200 21012G20KT P6SM BKN060
     FM280500 30010KT P6SM VCSH OVC050
     FM280800 VRB03KT P6SM VCSH OVC040=

USA.gov is the U.S. government's official web portal to all federal, state and local government web resources and services.